Tiempo atmosférico en la estación meteorológica de Vitoria Gasteiz Aeropuerto Foronda, Araba/Álava (513 m.)



Fecha
DESCASC
Temp. máxima en grados centígrados (hora)
DESCASC
Temp. mínima en grados centígrados (hora)
DESCASC
Temp. media en grados centígrados
DESCASC
Racha de viento máxima en m/sg (hora)
DESCASC
Velocidad máxima media en intervalos de 10 minutos(hora)
DESCASC
Precipitaciones diarias en mm
DESCASC
Precipitaciones de 00:00 a 06:00 en mm
DESCASC
Precipitaciones de 06:00 a 12:00 en mm
DESCASC
Precipitaciones de 12:00 a 18:00 en mm
DESCASC
Precipitaciones de 18:00 a 24:00 en mm
DESCASC

Gráficas

Temp. máximas Temp. mínimas Temp. medias Precipitaciones Rachas de viento máximas Velocidades máximas media en intervalos de 10 minutos

Datos horarios

Fecha y hora oficial Temperatura (ºC) Velocidad del viento (km/h) Dirección del viento Racha (km/h) Dirección de racha Precipitación (mm) Presión (hPa) Tendencia (hPa) Humedad (%)
2019-10-15 23:00:00 12.2 5 Este 13 Nordeste 0 959.4 0.2 60
2019-10-15 22:00:00 12.1 2 Sudoeste 15 Sur 0 959.2 0.3 58
2019-10-15 21:00:00 11.6 5 Este 22 Sudoeste 0 959.2 0.5 63
2019-10-15 20:00:00 12 14 Sudoeste 28 Sudoeste 0 959.2 0.5 61
2019-10-15 19:00:00 14.2 15 Sudoeste 32 Sudoeste 0 958.9 0.1 53
2019-10-15 18:00:00 16.1 24 Sudoeste 41 Sudoeste 0 958.7 -0.2 44
2019-10-15 17:00:00 16.5 26 Sudoeste 39 Sudoeste 0 958.7 -0.4 44
2019-10-15 16:00:00 16.9 23 Oeste 46 Sudoeste 0 958.8 -0.8 45
2019-10-15 15:00:00 16.4 27 Sudoeste 41 Sudoeste 0 958.9 -0.8 48
2019-10-15 14:00:00 15.6 29 Sudoeste 41 Sudoeste 0 959.1 -0.4 52
2019-10-15 13:00:00 13.8 27 Sur 41 Sudoeste 0 959.6 0.5 58
2019-10-15 12:00:00 12.5 22 Sudoeste 35 Sudoeste 0 959.7 1.2 64
2019-10-15 11:00:00 10.6 21 Sudoeste 30 Sudoeste 0 959.5 1.8 72
2019-10-15 10:00:00 8.2 18 Sudoeste 26 Sudoeste 0 959.1 1.6 81
2019-10-15 09:00:00 6.4 14 Sudoeste 32 Sudoeste 0 958.5 1.3 85
2019-10-15 08:00:00 7.3 18 Sudoeste 30 Sudoeste 0 957.7 1 82
2019-10-15 07:00:00 6.8 19 Sudoeste 28 Sudoeste 0 957.5 1.3 86
2019-10-15 06:00:00 6.5 17 Sudoeste 24 Sudoeste 0 957.2 1 89
2019-10-15 05:00:00 7 13 Sudoeste 30 Sudoeste 0 956.7 1 90
2019-10-15 04:00:00 7.7 15 Sudoeste 26 Sudoeste 0 956.2 1.2 92
2019-10-15 03:00:00 8.8 8 Sudoeste 13 Sudoeste 1.2 956.2 1.4 94
2019-10-15 02:00:00 9.2 7 Sudoeste 11 Sudoeste 2.2 955.7 1.3 91
2019-10-15 01:00:00 10.1 3 Sur 13 Sur 0.1 955 1.9 86
2019-10-15 00:00:00 10.3 7 Noroeste 15 Noroeste 0 954.8 2 83
2019-10-14 23:00:00 10.5 13 Noroeste 26 Sudoeste 0 954.4 1.7 82
2019-10-14 22:00:00 11.6 15 Sudoeste 32 Sudoeste 0 953.1 1.2 79
2019-10-14 21:00:00 11.7 13 Sudoeste 42 Sudoeste 0.5 952.8 2.3 83
2019-10-14 20:00:00 12.9 30 Sudoeste 42 Sudoeste 0 952.7 2.6 77
2019-10-14 19:00:00 13.9 10 Sudoeste 58 Oeste 0 951.9 2.1 65
2019-10-14 18:00:00 18.5 21 Oeste 41 Oeste 0 950.5 0.4 45
2019-10-14 17:00:00 20.7 33 Oeste 52 Sudoeste 0 950.1 0.1 36
2019-10-14 16:00:00 20.7 33 Sudoeste 54 Oeste 0 949.8 0.3 37
2019-10-14 15:00:00 19.9 28 Sudoeste 59 Sudoeste 0 950.1 2 48
2019-10-14 14:00:00 19.5 49 Sudoeste 71 Sudoeste 0 950 1.1 50
2019-10-14 13:00:00 18.4 36 Sudoeste 55 Oeste 0 949.5 0.4 63
2019-10-14 12:00:00 20.7 27 Sudeste 46 Sur 0 948.1 -0.5 62
2019-10-14 11:00:00 20.2 31 Sudeste 45 Sur 0 948.9 0.7 64
2019-10-14 10:00:00 19 24 Sudeste 41 Sudeste 0 949.1 0.7 68
2019-10-14 09:00:00 18.5 17 Sudeste 33 Sudeste 0 948.6 -0.3 69
2019-10-14 08:00:00 17.9 5 Oeste 18 Sudeste 0 948.2 -0.8 67
2019-10-14 07:00:00 16.8 10 Norte 18 Norte 0 948.4 -1.4 74
2019-10-14 06:00:00 17.3 6 Noroeste 21 Nordeste 0 948.9 -1.9 71
2019-10-14 05:00:00 17.5 12 Norte 22 Nordeste 0 949 -2.5 67
2019-10-14 04:00:00 16.2 8 Noroeste 26 Sur 0 949.8 -2.5 66
2019-10-14 03:00:00 13.3 11 Norte 15 Norte 0 950.8 -1.8 69
2019-10-14 02:00:00 13.9 6 Norte 13 Nordeste 0 951.5 -1.4 63
2019-10-14 01:00:00 15.8 4 Noroeste 11 Norte 0 952.3 -0.3 54
2019-10-14 00:00:00 19.9 4 Sudoeste 22 Sur 0 952.6 -0.1 42
2019-10-13 23:00:00 22 18 Sur 41 Sur 0 952.9 0.5 36
2019-10-13 22:00:00 22.5 20 Sur 42 Sur 0 952.6 0.3 33
2019-10-13 21:00:00 16.5 10 Norte 13 Nordeste 0 952.7 0.2 68
2019-10-13 20:00:00 20.5 0 Calma 9 Oeste 0 952.4 -0.5 55
2019-10-13 19:00:00 25.3 8 Este 9 Este 0 952.3 -0.9 40
2019-10-13 18:00:00 26 5 Sur 17 Este 0 952.5 -0.7 31
2019-10-13 17:00:00 26.3 8 Nordeste 15 Sudoeste 0 952.9 -0.7 33
2019-10-13 16:00:00 26.1 13 Oeste 37 Sur 0 953.2 -0.8 36
2019-10-13 15:00:00 28.2 19 Sudoeste 41 Sur 0 953.2 -1.4 33
2019-10-13 14:00:00 25.3 20 Sudoeste 41 Sudoeste 0 953.6 -1 37
2019-10-13 13:00:00 25.7 17 Sur 30 Sur 0 954 0.1 47
2019-10-13 12:00:00 21.6 10 Sudoeste 21 Sur 0 954.6 1.9 59
2019-10-13 11:00:00 19.9 10 Sur 35 Sur 0 954.6 2.4 68
2019-10-13 10:00:00 20.6 16 Sur 30 Sur 0 953.9 1.7 59
2019-10-13 09:00:00 18.2 12 Sudeste 24 Sur 0 952.7 0.5 64
2019-10-13 08:00:00 16.9 7 Oeste 15 Oeste 0 952.2 0 69
2019-10-13 07:00:00 17.6 10 Oeste 22 Oeste 0 952.2 -0.2 68
2019-10-13 06:00:00 17.7 13 Oeste 22 Sudoeste 0 952.2 -0.8 66
2019-10-13 05:00:00 18 5 Norte 18 Norte 0 952.2 -1.3 62
2019-10-13 04:00:00 16.7 10 Norte 21 Norte 0 952.4 -1.3 72
2019-10-13 03:00:00 18.2 12 Norte 24 Sudeste 0 953 -1.2 69
2019-10-13 02:00:00 19.6 7 Sudeste 22 Sur 0 953.5 -0.7 63
2019-10-13 01:00:00 18.1 10 Norte 22 Nordeste 0 953.7 -0.5 75
2019-10-13 00:00:00 18 7 Norte 13 Noroeste 0 954.2 -0.1 75
2019-10-12 23:00:00 19 8 Nordeste 18 Nordeste 0 954.2 1 73
2019-10-12 22:00:00 21.7 5 Oeste 45 Sudeste 0 954.2 1.1 56
2019-10-12 21:00:00 23.5 28 Sur 45 Sur 0 954.3 0.5 52
2019-10-12 20:00:00 23.3 17 Sudeste 37 Sudeste 0 953.2 -0.2 51
2019-10-12 19:00:00 24.6 16 Sudeste 32 Sur 0 953.1 -0.9 47
2019-10-12 18:00:00 25.4 5 Oeste 41 Sudeste 0 953.8 -1.2 49
2019-10-12 17:00:00 25.8 26 Sudeste 39 Sudeste 0 953.4 -2.5 48
2019-10-12 16:00:00 26.1 20 Sudeste 35 Sudeste 0 954 -2.3 46
2019-10-12 15:00:00 26.5 19 Sur 37 Sur 0 955 -1.6 45
2019-10-12 14:00:00 25.8 22 Sur 37 Sur 0 955.9 -0.8 47
2019-10-12 13:00:00 23.5 15 Sudoeste 30 Sudoeste 0 956.3 -0.3 55
2019-10-12 12:00:00 22.7 16 Sur 30 Sur 0 956.6 0.3 58
2019-10-12 11:00:00 21.2 18 Sur 33 Sur 0 956.7 0.8 65
2019-10-12 10:00:00 17.6 4 Sudeste 11 Sudoeste 0 956.6 0.7 83
2019-10-12 09:00:00 16.4 3 Noroeste 13 Oeste 0 956.3 0.5 86
2019-10-12 08:00:00 16.8 5 Noroeste 11 Este 0 955.9 0 86
2019-10-12 07:00:00 16.6 5 Norte 17 Norte 0 955.9 -0.1 87
2019-10-12 06:00:00 15.6 9 Norte 13 Norte 0 955.8 -0.7 86
2019-10-12 05:00:00 15.7 3 Este 9 Norte 0 955.9 -0.9 83
2019-10-12 04:00:00 16 6 Norte 13 Norte 0 956 -1.2 84
2019-10-12 03:00:00 15.4 8 Norte 11 Norte 0 956.5 -0.9 85
2019-10-12 02:00:00 16.4 4 Noroeste 9 Noroeste 0 956.8 -0.5 80
2019-10-12 01:00:00 18.1 5 Nordeste 11 Nordeste 0 957.2 0.1 73
2019-10-12 00:00:00 17.4 7 Nordeste 11 Este 0 957.4 0.4 77
2019-10-11 23:00:00 17.5 3 Oeste 9 Norte 0 957.3 0.4 77
2019-10-11 22:00:00 17.9 6 Noroeste 13 Norte 0 957.1 0.4 77
2019-10-11 21:00:00 18.9 9 Norte 15 Norte 0 957 0 71
2019-10-11 20:00:00 20.8 5 Sudoeste 15 Sudoeste 0 956.9 -0.5 64
2019-10-11 19:00:00 23.8 12 Sudoeste 15 Sudoeste 0 956.7 -1.4 55
2019-10-11 18:00:00 26 9 Oeste 21 Sudoeste 0 957 -1.8 47
2019-10-11 17:00:00 25.9 11 Sudoeste 18 Sudoeste 0 957.4 -2.7 48
2019-10-11 16:00:00 24.9 9 Oeste 22 Sudoeste 0 958.1 -3 50
2019-10-11 15:00:00 24 14 Sudoeste 24 Sudoeste 0 958.8 -2.6 52
2019-10-11 14:00:00 21.7 15 Sudoeste 26 Sudoeste 0 960.1 -1.5 57
2019-10-11 13:00:00 19.7 18 Sudoeste 26 Sudoeste 0 961.1 0 60
2019-10-11 12:00:00 17.8 19 Sudoeste 28 Sudoeste 0 961.4 0.8 65
2019-10-11 11:00:00 16 21 Sudoeste 30 Sudoeste 0 961.6 1.4 68
2019-10-11 10:00:00 13.8 15 Sudoeste 21 Sudoeste 0 961.1 1.2 72
2019-10-11 09:00:00 12 3 Sudoeste 13 Oeste 0 960.6 0.5 74
2019-10-11 08:00:00 11.3 6 Noroeste 15 Noroeste 0 960.2 0 77
2019-10-11 07:00:00 5.8 0 Calma 5 Noroeste 0 959.9 -0.6 95
2019-10-11 06:00:00 4.9 4 Este 8 Este 0 960.1 -0.9 96
2019-10-11 05:00:00 5 0 Calma 5 Sudeste 0 960.2 -0.9 97
2019-10-11 04:00:00 4.7 0 Calma 5 Este 0 960.5 -1 92
2019-10-11 03:00:00 5.8 0 Calma 5 Este 0 961 -0.9 96
2019-10-11 02:00:00 6.1 3 Este 5 Este 0 961.1 -0.7 93
2019-10-11 01:00:00 6.9 3 Oeste 5 Oeste 0 961.5 -0.3 92
2019-10-11 00:00:00 8 5 Este 8 Nordeste 0 961.9 0.3 91
2019-10-10 23:00:00 9.6 3 Sur 11 Noroeste 0 961.8 0.4 87
2019-10-10 22:00:00 11.2 4 Nordeste 9 Nordeste 0 961.8 0.4 83
2019-10-10 21:00:00 13.1 5 Este 15 Norte 0 961.6 0.3 75
2019-10-10 20:00:00 15.8 13 Norte 21 Norte 0 961.4 -0.4 67
2019-10-10 19:00:00 19 14 Norte 18 Norte 0 961.4 -1 52
2019-10-10 18:00:00 20.6 10 Norte 18 Este 0 961.3 -1.6 45
2019-10-10 17:00:00 21 7 Nordeste 18 Norte 0 961.8 -2.1 42
2019-10-10 16:00:00 20.4 8 Este 15 Nordeste 0 962.4 -2.2 44
2019-10-10 15:00:00 19.7 5 Sur 17 Este 0 962.9 -2.2 48
2019-10-10 14:00:00 18.2 6 Este 13 Nordeste 0 963.9 -1.6 52
2019-10-10 13:00:00 16.2 4 Nordeste 9 Nordeste -- 964.6 -0.8 58
2019-10-10 12:00:00 13.1 3 Sudeste 8 Sur 0 965.1 0.2 75
2019-10-10 11:00:00 8.7 2 Sudeste 5 Nordeste 0 965.5 1.2 98
2019-10-10 10:00:00 6.2 0 Calma 5 Este 0 965.4 1.3 99
2019-10-10 09:00:00 2.4 3 Este 4 Este 0 964.9 0.7 99
2019-10-10 08:00:00 1.7 0 Calma 5 Este 0 964.3 0.2 98
2019-10-10 07:00:00 2.6 0 Calma 4 Oeste 0 964.1 0 96
2019-10-10 06:00:00 3 3 Sur 9 Norte 0 964.2 -0.3 97
2019-10-10 05:00:00 3.8 2 Norte 9 Norte 0 964.1 -0.2 96
2019-10-10 04:00:00 4.1 5 Este 8 Este 0 964.1 -0.4 96
2019-10-10 03:00:00 4.1 4 Nordeste 5 Nordeste 0 964.5 0.1 95
2019-10-10 02:00:00 4.9 0 Calma 11 Este 0 964.3 -0.1 93
2019-10-10 01:00:00 5.5 5 Noroeste 9 Nordeste 0 964.5 0.2 95
2019-10-10 00:00:00 6.5 3 Norte 8 Este 0 964.4 0.2 93
2019-10-09 23:00:00 7.7 0 Calma 11 Norte 0 964.4 0.6 91
2019-10-09 22:00:00 8.8 3 Sudeste 13 Norte 0 964.3 1.2 88
2019-10-09 21:00:00 10.5 10 Norte 17 Norte 0 964.2 1.7 86
2019-10-09 20:00:00 12.7 14 Norte 28 Norte 0 963.8 1.5 77
2019-10-09 19:00:00 14.8 20 Norte 35 Norte 0 963.1 0.7 68
2019-10-09 18:00:00 16.6 24 Norte 35 Norte 0 962.5 0 59
2019-10-09 17:00:00 16.5 24 Norte 37 Norte 0 962.3 -0.3 62
2019-10-09 16:00:00 17.2 19 Nordeste 28 Nordeste 0 962.4 -0.8 60
2019-10-09 15:00:00 16.5 17 Nordeste 28 Nordeste 0 962.5 -0.6 65
2019-10-09 14:00:00 18.2 9 Nordeste 32 Noroeste 0 962.6 -0.4 56
2019-10-09 13:00:00 16.6 16 Norte 33 Norte 0 963.2 0.5 61
2019-10-09 12:00:00 17 17 Norte 28 Noroeste 0 963.1 1 59
2019-10-09 11:00:00 14.5 6 Norte 15 Norte 0 963 1.2 78
2019-10-09 10:00:00 13.2 5 Este 11 Nordeste 0 962.7 1.3 88
2019-10-09 09:00:00 12.6 8 Este 13 Noroeste 0 962.1 1 91
2019-10-09 08:00:00 12.4 7 Nordeste 13 Nordeste 0 961.8 1.5 92
2019-10-09 07:00:00 12.9 6 Este 9 Sudeste 0 961.4 1.6 95
2019-10-09 06:00:00 13 4 Este 15 Norte 0 961.1 0.7 94
2019-10-09 05:00:00 13.3 12 Noroeste 21 Noroeste 0 960.3 -0.1 91
2019-10-09 04:00:00 13.9 7 Nordeste 11 Nordeste 0 959.8 -0.8 87
2019-10-09 03:00:00 14.4 8 Norte 15 Norte 0 960.4 -0.6 86
2019-10-09 02:00:00 14.6 8 Nordeste 15 Nordeste 0 960.4 -0.4 87
2019-10-09 01:00:00 14.7 11 Nordeste 21 Nordeste 0 960.6 -0.1 87
2019-10-09 00:00:00 14.9 14 Nordeste 18 Nordeste 0 961 0.5 87
2019-10-08 23:00:00 15.7 13 Nordeste 22 Norte 0 960.8 0.7 84
2019-10-08 22:00:00 16.6 15 Nordeste 22 Nordeste 0 960.7 1.1 85
2019-10-08 21:00:00 17.6 12 Nordeste 24 Nordeste 0 960.5 1.8 85
2019-10-08 20:00:00 17.9 18 Norte 32 Norte 0 960.1 1.8 89
2019-10-08 19:00:00 19.6 29 Norte 41 Norte 0 959.6 1.6 78
2019-10-08 18:00:00 23.1 26 Norte 37 Norte 0 958.7 0.8 58
2019-10-08 17:00:00 24.5 28 Nordeste 37 Nordeste 0 958.3 -0.3 46
2019-10-08 16:00:00 26.8 19 Nordeste 30 Nordeste 0 958 -1.2 36
2019-10-08 15:00:00 26.8 9 Nordeste 22 Nordeste 0 957.9 -1.9 32
2019-10-08 14:00:00 24.7 4 Este 13 Norte 0 958.6 -1.7 34
2019-10-08 13:00:00 21.7 4 Nordeste 9 Este 0 959.2 -1.2 38
2019-10-08 12:00:00 18.2 2 Sur 8 Sur 0 959.8 -0.6 46
2019-10-08 11:00:00 14.3 3 Sudoeste 8 Oeste 0 960.3 -0.3 57
2019-10-08 10:00:00 10.4 0 Calma 4 Sur 0 960.4 -0.1 72
2019-10-08 09:00:00 5.8 0 Calma 5 Norte 0 960.4 -0.2 90
2019-10-08 08:00:00 4.6 0 Calma 5 Nordeste 0 960.6 -0.4 90
2019-10-08 07:00:00 5.3 2 Noroeste 8 Nordeste 0 960.5 -1.1 87
2019-10-08 06:00:00 5.5 2 Sudeste 5 Oeste 0 960.6 -1.5 84
2019-10-08 05:00:00 6 3 Sudoeste 8 Norte 0 961 -1 84
2019-10-08 04:00:00 6.7 4 Norte 9 Noroeste 0 961.6 -0.6 81
2019-10-08 03:00:00 6.7 6 Nordeste 8 Nordeste 0 962.1 -0.3 81
2019-10-08 02:00:00 7.5 3 Oeste 9 Nordeste 0 962 -0.3 79
2019-10-08 01:00:00 8.4 4 Nordeste 11 Norte 0 962.2 0.2 73
2019-10-08 00:00:00 8.9 5 Norte 8 Nordeste 0 962.4 0.7 72
2019-10-07 23:00:00 10.5 6 Este 8 Este 0 962.3 0.6 68
2019-10-07 22:00:00 12.5 2 Sudoeste 13 Norte 0 962 0.5 66
2019-10-07 21:00:00 14.4 5 Norte 13 Nordeste 0 961.7 0.3 59
2019-10-07 20:00:00 17.7 10 Nordeste 17 Norte 0 961.7 0.3 47
2019-10-07 19:00:00 20.9 13 Nordeste 22 Norte 0 961.5 -- 42
2019-10-07 18:00:00 23 14 Norte 26 Norte 0 961.4 -- 29
2019-10-07 17:00:00 23.9 13 Norte -- -- -- 961.4 -- 21
2019-10-07 16:00:00 -- -- -- -- -- -- -- -- --
2019-10-07 15:00:00 -- -- -- -- -- -- -- -- --
2019-10-07 14:00:00 -- -- -- -- -- -- -- -- --
2019-10-07 13:00:00 18.5 5 Este 13 Este 0 963 0.1 56
2019-10-07 12:00:00 15.9 5 Este 9 Este 0 963.2 0.5 71
2019-10-07 11:00:00 12.5 3 Oeste 9 Nordeste 0 963.1 0.3 85
2019-10-07 10:00:00 10.5 4 Nordeste 9 Nordeste 0 962.9 0.5 94
2019-10-07 09:00:00 8.7 5 Este 8 Este 0 962.7 0.5 99
2019-10-07 08:00:00 7.3 4 Oeste 11 Norte 0 962.8 0.3 98
2019-10-07 07:00:00 6.6 9 Nordeste 11 Nordeste 0 962.4 -0.6 97
2019-10-07 06:00:00 7 3 Nordeste 9 Nordeste 0 962.2 -1.3 96
2019-10-07 05:00:00 8.7 0 Calma 8 Oeste 0 962.5 -1.1 95
2019-10-07 04:00:00 9.8 5 Oeste 11 Oeste 0 963 -1 95
2019-10-07 03:00:00 10.9 2 Oeste 5 Oeste 0 963.5 -0.9 92
2019-10-07 02:00:00 11.6 4 Noroeste 11 Noroeste 0 963.6 -0.7 92
2019-10-07 01:00:00 12 4 Sudoeste 8 Norte 0 964 -0.1 89
2019-10-07 00:00:00 12.8 6 Norte 13 Oeste 0 964.4 0.4 87
2019-10-06 23:00:00 13.2 10 Oeste 17 Oeste 0 964.3 0.6 84
2019-10-06 22:00:00 13.1 11 Noroeste 18 Noroeste 0 964.1 0.8 85
2019-10-06 21:00:00 12.8 5 Norte 26 Norte 0 964 1.3 90
2019-10-06 20:00:00 14.2 17 Norte 22 Norte 0 963.7 1.1 88
2019-10-06 19:00:00 15.5 18 Norte 30 Noroeste 0 963.3 0.5 84
2019-10-06 18:00:00 17.5 21 Noroeste 35 Norte 0 962.7 0.1 72
2019-10-06 17:00:00 16.9 15 Norte 35 Norte 0 962.6 -0.3 76
2019-10-06 16:00:00 17.4 19 Norte 33 Nordeste 0 962.8 -0.1 76
2019-10-06 15:00:00 18.8 22 Norte 33 Norte 0 962.6 -0.3 71
2019-10-06 14:00:00 18.7 12 Noroeste 21 Norte 0 962.9 -0.2 70
2019-10-06 13:00:00 17.3 5 Oeste 13 Oeste 0 962.9 0.2 73
2019-10-06 12:00:00 16.1 9 Sudoeste 13 Sudoeste 0 962.9 0.9 76
2019-10-06 11:00:00 15.4 4 Sudoeste 13 Sudoeste 0 963.1 1.4 79
2019-10-06 10:00:00 13.5 6 Sudoeste 9 Oeste 0 962.7 0.9 89
2019-10-06 09:00:00 12.2 3 Noroeste 9 Sur 0 962 0.8 92
2019-10-06 08:00:00 11.3 2 Norte 5 Norte 0 961.7 0.5 95
2019-10-06 07:00:00 11.4 0 Calma 5 Sur 0 961.8 0.4 94
2019-10-06 06:00:00 10.4 0 Calma 9 Nordeste 0 961.2 -0.3 95
2019-10-06 05:00:00 11.1 5 Norte 11 Norte 0 961.2 0 93
2019-10-06 04:00:00 11.6 4 Oeste 8 Norte 0 961.4 -0.2 95
2019-10-06 03:00:00 12.4 6 Este 9 Norte 0 961.5 0.8 87
2019-10-06 02:00:00 14.6 2 Nordeste 13 Noroeste 0 961.2 -0.2 83
2019-10-06 01:00:00 14.7 10 Norte 13 Norte 0 961.6 0.5 84
2019-10-06 00:00:00 14.7 8 Este 15 Nordeste 0 960.7 0.1 84
2019-10-05 23:00:00 14.8 11 Nordeste 22 Nordeste 0 961.4 1.5 86
2019-10-05 22:00:00 15.1 17 Norte 26 Norte 0 961.1 2.1 84
2019-10-05 21:00:00 15.6 20 Norte 28 Norte 0 960.6 2.3 85
2019-10-05 20:00:00 16.3 19 Norte 30 Norte 0 959.9 1.7 81
2019-10-05 19:00:00 18.1 21 Nordeste 32 Nordeste 0 959 0.6 72
2019-10-05 18:00:00 20.2 18 Nordeste 30 Nordeste 0 958.3 -0.3 64
2019-10-05 17:00:00 21.2 17 Nordeste 30 Este 0 958.2 -1 59
2019-10-05 16:00:00 21.5 19 Nordeste 30 Nordeste 0 958.4 -1 58
2019-10-05 15:00:00 21.4 16 Nordeste 28 Nordeste 0 958.6 -1 59
2019-10-05 14:00:00 20.8 10 Nordeste 21 Este 0 959.2 -0.8 58
2019-10-05 13:00:00 19.3 8 Nordeste 15 Nordeste 0 959.4 -0.3 60
2019-10-05 12:00:00 17.8 7 Nordeste 15 Norte 0 959.6 0.2 65
2019-10-05 11:00:00 16 9 Norte 17 Norte 0 960 1 70
2019-10-05 10:00:00 14.9 9 Noroeste 13 Noroeste 0 959.7 0.7 76
2019-10-05 09:00:00 14.1 7 Noroeste 17 Norte 0 959.4 0.1 81
2019-10-05 08:00:00 13.4 6 Norte 11 Nordeste 0 959 -0.3 91
2019-10-05 07:00:00 13.4 6 Nordeste 11 Nordeste 0 959 -0.5 93
2019-10-05 06:00:00 13.8 5 Nordeste 5 Nordeste 0 959.3 -0.5 92
2019-10-05 05:00:00 13.8 4 Nordeste 5 Nordeste 0 959.3 -0.9 92
2019-10-05 04:00:00 14 4 Norte 5 Norte 0 959.5 -1.1 91
2019-10-05 03:00:00 13.8 2 Oeste 4 Oeste 0 959.8 -0.8 91
2019-10-05 02:00:00 14.1 2 Sudeste 5 Este 0 960.2 -0.5 90
2019-10-05 01:00:00 14.2 4 Nordeste 8 Nordeste 0 960.6 0.1 89
2019-10-05 00:00:00 14.1 5 Nordeste 9 Nordeste 0 960.6 0.4 89
2019-10-04 23:00:00 13.9 9 Nordeste 18 Nordeste 0 960.7 1 92
2019-10-04 22:00:00 14.1 12 Nordeste 26 Norte 0 960.5 1.3 91
2019-10-04 21:00:00 14.8 11 Norte 26 Norte 0 960.2 1.5 91
2019-10-04 20:00:00 15.4 15 Nordeste 26 Norte 0 959.7 1.2 87
2019-10-04 19:00:00 16.2 19 Nordeste 26 Norte 0 959.2 0.5 82
2019-10-04 18:00:00 17.2 20 Norte 33 Norte 0 958.7 -0.4 79
2019-10-04 17:00:00 17.7 25 Nordeste 35 Nordeste 0 958.5 -1.3 81
2019-10-04 16:00:00 20.9 18 Nordeste 28 Nordeste 0 958.7 -1.8 67
2019-10-04 15:00:00 19.6 22 Nordeste 28 Nordeste 0 959.1 -1.7 73
2019-10-04 14:00:00 20.3 4 Sudeste 17 Sur 0 959.8 -1 67
2019-10-04 13:00:00 18.3 8 Este 15 Nordeste 0 960.5 0.1 78
2019-10-04 12:00:00 17.3 2 Sur 9 Sudeste 0 960.8 0.8 76
2019-10-04 11:00:00 14.4 3 Este 8 Nordeste 0 960.8 0.8 81
2019-10-04 10:00:00 10.9 2 Este 5 Sudeste 0 960.4 0.8 94
2019-10-04 09:00:00 8.6 3 Noroeste 9 Oeste 0 960 0.5 97
2019-10-04 08:00:00 6.8 3 Este 8 Oeste 0 960 0.3 96
2019-10-04 07:00:00 6.8 5 Sudoeste 5 Sudoeste 0 959.6 -0.4 98
2019-10-04 06:00:00 6.8 0 Calma 8 Nordeste 0 959.5 -0.9 95
2019-10-04 05:00:00 7.6 0 Calma 8 Noroeste 0 959.7 -1 97
2019-10-04 04:00:00 8.2 0 Calma -- -- 0 960 -0.9 94
2019-10-04 03:00:00 8.8 0 Calma 5 Oeste 0 960.4 -0.7 93
2019-10-04 02:00:00 9.4 3 Norte 9 Nordeste 0 960.7 -0.4 93
2019-10-04 01:00:00 9.4 4 Nordeste 8 Nordeste 0 960.9 0.1 91
2019-10-04 00:00:00 10.5 0 Calma 15 Nordeste 0 961.1 0.5 88
2019-10-03 23:00:00 11.4 8 Nordeste 13 Este 0 961.1 1.1 86
2019-10-03 22:00:00 13 5 Nordeste 9 Nordeste 0 960.8 1 83
2019-10-03 21:00:00 14.8 5 Este 15 Norte 0 960.6 1.2 74
2019-10-03 20:00:00 16.3 13 Norte 26 Nordeste 0 960 0.6 69
2019-10-03 19:00:00 19.4 20 Nordeste 28 Nordeste 0 959.8 0.3 60
2019-10-03 18:00:00 22.2 12 Nordeste 22 Norte 0 959.4 -0.3 51
2019-10-03 17:00:00 22.9 14 Norte 28 Noroeste 0 959.4 -0.7 48
2019-10-03 16:00:00 22.9 12 Norte 33 Norte 0 959.5 -0.8 47
2019-10-03 15:00:00 22.4 12 Norte 28 Norte 0 959.7 -0.9 48
2019-10-03 14:00:00 21 12 Noroeste 26 Noroeste 0 960.1 -1.1 51
2019-10-03 13:00:00 18.8 5 Sur 15 Sudeste 0 960.3 -0.9 58
2019-10-03 12:00:00 16.5 5 Sudoeste 15 Sudoeste 0 960.6 -0.4 66
2019-10-03 11:00:00 12.6 3 Este 8 Este 0 961.2 0.5 86
2019-10-03 10:00:00 9.6 2 Este 5 Este 0 961.2 0.6 99
2019-10-03 09:00:00 8 0 Calma 8 Nordeste 0 961 0.4 99
2019-10-03 08:00:00 7 0 Calma 5 Oeste 0 960.7 -0.2 97
2019-10-03 07:00:00 7.9 0 Calma 5 Nordeste 0 960.6 -0.7 96
2019-10-03 06:00:00 10.6 0 Calma 5 Norte 0 960.6 -1.3 94
2019-10-03 05:00:00 12.1 3 Norte 13 Noroeste 0 960.9 -1.6 91
2019-10-03 04:00:00 12.2 2 Sudoeste 13 Sudoeste 0 961.3 -1.7 92
2019-10-03 03:00:00 12.1 7 Sudoeste 11 Sudoeste 0 961.9 -1.4 93
2019-10-03 02:00:00 11.9 5 Oeste 8 Oeste 0 962.5 -1.3 94
2019-10-03 01:00:00 11.5 0 Calma 13 Nordeste 0 963 -0.6 95
2019-10-03 00:00:00 11.8 11 Nordeste 15 Nordeste 0 963.3 0.3 93
2019-10-02 23:00:00 13.5 6 Norte 18 Noroeste 0 963.8 1.2 89
2019-10-02 22:00:00 13.2 4 Norte 21 Noroeste 0 963.6 1.4 92
2019-10-02 21:00:00 13.3 6 Nordeste 24 Noroeste 0.1 963 1.4 95
2019-10-02 20:00:00 14.7 12 Norte 24 Noroeste 0 962.6 1.2 81
2019-10-02 19:00:00 15.8 17 Noroeste 37 Noroeste 0 962.2 0.6 76
2019-10-02 18:00:00 16.4 24 Noroeste 37 Noroeste 0 961.6 0.1 73
2019-10-02 17:00:00 17.4 20 Norte 28 Norte 0 961.4 0.2 70
2019-10-02 16:00:00 16.8 14 Norte 32 Norte 0 961.6 0 70
2019-10-02 15:00:00 17.1 21 Norte 41 Noroeste 0 961.5 0.5 67
2019-10-02 14:00:00 16.2 13 Noroeste 39 Noroeste 0 961.2 0.5 70
2019-10-02 13:00:00 15.8 26 Noroeste 42 Noroeste 0 961.6 2 73
2019-10-02 12:00:00 15.5 20 Noroeste 32 Noroeste 0 961 2.1 76
2019-10-02 11:00:00 14.1 14 Noroeste 22 Noroeste 0 960.7 2.1 86
2019-10-02 10:00:00 13.1 7 Oeste 13 Oeste 0.1 959.6 1.5 89
2019-10-02 09:00:00 12.7 8 Oeste 13 Noroeste 0 958.9 1 91
2019-10-02 08:00:00 12.6 4 Noroeste 13 Oeste 0 958.6 1 88
2019-10-02 07:00:00 11.9 4 Oeste 18 Noroeste 0 958.1 0.2 87
2019-10-02 06:00:00 12.4 9 Oeste 17 Oeste 0 957.9 -0.1 88
2019-10-02 05:00:00 12.6 13 Oeste 30 Oeste 0 957.6 -0.2 87
2019-10-02 04:00:00 12.4 9 Oeste 18 Oeste 0 957.9 -0.2 90
2019-10-02 03:00:00 14.2 5 Oeste 17 Oeste 0 958 0.2 81
2019-10-02 02:00:00 14.7 10 Norte 26 Norte 0 957.8 0.4 82
2019-10-02 01:00:00 15.3 8 Noroeste 24 Norte 0 958.1 0.9 81
2019-10-02 00:00:00 16 14 Noroeste 26 Noroeste 0 957.8 1.1 78
2019-10-01 23:00:00 16.2 18 Norte 26 Norte 0 957.4 1.2 78
2019-10-01 22:00:00 16.3 11 Norte 24 Noroeste 0 957.2 1.2 79
2019-10-01 21:00:00 16.3 8 Nordeste 21 Nordeste 0 956.7 1.3 80
2019-10-01 20:00:00 16.5 7 Nordeste 24 Norte 0 956.2 1.3 80
2019-10-01 19:00:00 16.7 21 Norte 39 Norte 0 956 1.3 85
2019-10-01 18:00:00 18 30 Norte 42 Norte 0 955.4 0.4 79
2019-10-01 17:00:00 19.9 34 Norte 42 Norte 0 954.9 -0.7 72
2019-10-01 16:00:00 23 19 Nordeste 30 Nordeste 0 954.7 -0.7 59
2019-10-01 15:00:00 21.5 12 Nordeste 26 Norte 0 955 -0.9 64
2019-10-01 14:00:00 21.1 14 Nordeste 28 Norte 0 955.6 -0.2 66
2019-10-01 13:00:00 23.1 10 Norte 18 Nordeste 0 955.4 0.1 56
2019-10-01 12:00:00 21.8 6 Nordeste 24 Nordeste 0 955.9 1 64
2019-10-01 11:00:00 19.6 5 Este 9 Nordeste 0 955.8 1.6 73
2019-10-01 10:00:00 16 4 Nordeste 8 Nordeste 0 955.3 1.5 88
2019-10-01 09:00:00 11 2 Este 11 Sur 0 954.9 1.2 97
2019-10-01 08:00:00 10 0 Calma 5 Norte 0 954.2 0.3 97
2019-10-01 07:00:00 10 0 Calma 8 Noroeste 0 953.8 -0.8 96
2019-10-01 06:00:00 10.4 0 Calma 9 Este 0 953.7 -1.8 98
2019-10-01 05:00:00 10.5 4 Sudeste 9 Noroeste 0 953.9 -1.5 93
2019-10-01 04:00:00 11 3 Nordeste 5 Nordeste 0 954.6 -1.2 94
2019-10-01 03:00:00 12 0 Calma 5 Sur 0 955.5 -0.4 93
2019-10-01 02:00:00 13.2 0 Calma 8 Noroeste 0 955.4 -0.5 92
2019-10-01 01:00:00 13 0 Calma 8 Nordeste 0 955.8 -0.1 91
2019-10-01 00:00:00 14.1 0 Calma 5 Nordeste 0 955.9 0.3 87
2019-09-30 23:00:00 15.7 0 Calma 9 Nordeste 0 955.9 0.3 84
2019-09-30 22:00:00 17.3 6 Este 13 Nordeste 0 955.9 0.3 80
2019-09-30 21:00:00 19.3 4 Sudeste 9 Nordeste 0 955.6 -0.2 71
2019-09-30 20:00:00 22.5 7 Norte 15 Nordeste 0 955.6 -0.9 58
2019-09-30 19:00:00 26 11 Nordeste 17 Nordeste 0 955.6 -1.6 46
2019-09-30 18:00:00 27.1 6 Nordeste 13 Este 0 955.8 -2.2 42
2019-09-30 17:00:00 26.9 5 Nordeste 15 Nordeste 0 956.5 -2.3 44
2019-09-30 16:00:00 26.3 8 Norte 21 Norte 0 957.2 -2.5 49
2019-09-30 15:00:00 25 7 Sur 15 Norte 0 958 -2.3 53
2019-09-30 14:00:00 23.3 4 Norte 13 Sudeste 0 958.8 -1.8 59
2019-09-30 13:00:00 21.4 5 Sudoeste 13 Oeste 0 959.7 -0.8 66
2019-09-30 12:00:00 17.1 3 Norte 9 Norte 0 960.3 0.2 83
2019-09-30 11:00:00 13.9 0 Calma 5 Noroeste 0 960.6 0.8 98
2019-09-30 10:00:00 12.7 0 Calma 8 Sur 0 960.5 1 99
2019-09-30 09:00:00 11.2 0 Calma 8 Norte 0 960.1 0.7 99
2019-09-30 08:00:00 10 0 Calma 5 Sur 0 959.8 0.1 98
2019-09-30 07:00:00 9.2 0 Calma 9 Norte 0 959.5 -0.6 96
2019-09-30 06:00:00 8.8 7 Nordeste 8 Nordeste 0 959.4 -1.1 96
2019-09-30 05:00:00 9.4 -- -- 5 Nordeste 0 959.7 -0.9 95
2019-09-30 04:00:00 9.9 0 Calma 8 Nordeste 0 960.1 -0.6 95
2019-09-30 03:00:00 10.1 0 Calma 5 Norte 0 960.5 -0.4 92
2019-09-30 02:00:00 11.1 4 Nordeste 8 Sur 0 960.6 0 88
2019-09-30 01:00:00 12.1 2 Oeste 8 Oeste 0 960.7 0.5 81
2019-09-30 00:00:00 13.3 2 Noroeste 8 Nordeste 0 960.9 1.5 78
2019-09-29 23:00:00 14.7 4 Este 9 Nordeste 0 960.6 1.8 71
2019-09-29 22:00:00 15.2 0 Calma 9 Nordeste 0 960.2 2.1 66
2019-09-29 21:00:00 17.2 9 Norte 17 Norte 0 959.4 2.5 57
2019-09-29 20:00:00 20.1 12 Nordeste 30 Norte 0 958.8 1.8 44
2019-09-29 19:00:00 23.5 19 Norte 35 Norte 0 958.1 0.9 36
2019-09-29 18:00:00 29.6 7 Oeste 24 Oeste 0 956.9 -0.8 23
2019-09-29 17:00:00 29.6 16 Oeste 33 Oeste 0 957 -1.6 22
2019-09-29 16:00:00 29.5 25 Oeste 37 Oeste 0 957.2 -1.5 22
2019-09-29 15:00:00 28.5 21 Sudoeste 35 Sudoeste 0 957.7 -1.3 25
2019-09-29 14:00:00 27.1 24 Sudoeste 42 Sudoeste 0 958.6 -0.4 33
2019-09-29 13:00:00 24.6 18 Sudoeste 33 Sudoeste 0 958.7 0.3 41
2019-09-29 12:00:00 22 21 Sudoeste 30 Oeste 0 959 0.7 49
2019-09-29 11:00:00 19.1 18 Sudoeste 33 Sudoeste 0 959 0.8 65
2019-09-29 10:00:00 16 25 Sudoeste 33 Sudoeste 0 958.4 0.4 75
2019-09-29 09:00:00 10.2 8 Nordeste 15 Norte 0 958.3 0.2 92
2019-09-29 08:00:00 7.8 9 Nordeste 17 Nordeste 0 958.2 0 96
2019-09-29 07:00:00 8.5 6 Este 13 Nordeste 0 958 -0.6 94
2019-09-29 06:00:00 8 5 Nordeste 13 Nordeste 0 958.1 -0.8 95
2019-09-29 05:00:00 9 4 Nordeste 9 Nordeste 0 958.2 -0.7 95
2019-09-29 04:00:00 9.3 5 Este 9 Sudeste 0 958.6 -0.6 94
2019-09-29 03:00:00 8.8 6 Este 9 Nordeste 0 958.9 -0.5 93
2019-09-29 02:00:00 10.5 5 Oeste 11 Sur 0 958.9 -0.5 91
2019-09-29 01:00:00 10.8 0 Calma 5 Noroeste 0 959.2 0.1 93
2019-09-29 00:00:00 11 0 Calma 5 Oeste 0 959.4 0.5 93
2019-09-28 23:00:00 13.3 0 Calma 11 Norte 0 959.4 0.8 86
2019-09-28 22:00:00 15.7 5 Nordeste 15 Norte 0 959.1 0.4 78
2019-09-28 21:00:00 18.4 4 Nordeste 13 Oeste 0 958.9 0.2 62
2019-09-28 20:00:00 22.9 6 Oeste 13 Sudoeste 0 958.6 -0.7 49
2019-09-28 19:00:00 25.7 8 Sudoeste 15 Sudoeste 0 958.7 -1.5 40
2019-09-28 18:00:00 26.4 11 Sudoeste 22 Sudoeste 0 958.7 -2.3 37
2019-09-28 17:00:00 26.1 9 Sudoeste 24 Sudoeste 0 959.3 -2.6 39
2019-09-28 16:00:00 25.2 13 Sudoeste 22 Sudoeste 0 960.2 -2.3 41
2019-09-28 15:00:00 24.1 12 Sudoeste 24 Sudoeste 0 961 -2.1 47
2019-09-28 14:00:00 22.6 10 Sudoeste 21 Sudoeste 0 961.9 -1.5 54
2019-09-28 13:00:00 20.6 6 Sudeste 15 Este 0 962.5 -0.6 65
2019-09-28 12:00:00 18.4 4 Norte 9 Norte 0 963.1 0.3 73
2019-09-28 11:00:00 16.7 4 Norte 8 Norte 0 963.4 0.8 79
2019-09-28 10:00:00 15.2 4 Nordeste 8 Nordeste 0 963.1 0.4 85
2019-09-28 09:00:00 14.4 3 Norte 8 Norte 0 962.8 0 89
2019-09-28 08:00:00 14.1 6 Nordeste 15 Nordeste 0 962.6 -0.3 90
2019-09-28 07:00:00 14.2 13 Norte 17 Norte 0 962.7 -0.4 88
2019-09-28 06:00:00 14.3 9 Norte 13 Norte 0 962.8 -0.4 88
2019-09-28 05:00:00 14.3 10 Nordeste 17 Nordeste 0 962.9 -0.2 89
2019-09-28 04:00:00 14.4 10 Nordeste 15 Nordeste 0 963.1 -0.2 90
2019-09-28 03:00:00 14.5 9 Nordeste 15 Nordeste 0 963.2 0 89
2019-09-28 02:00:00 14.5 12 Nordeste 17 Nordeste 0 963.1 0.1 88
2019-09-28 01:00:00 14.5 12 Nordeste 17 Nordeste 0 963.3 0.6 86
2019-09-28 00:00:00 15 8 Nordeste 21 Nordeste 0 963.2 1.4 79
2019-09-27 23:00:00 15.3 16 Norte 32 Nordeste 0 963 2.2 80
2019-09-27 22:00:00 16.1 14 Norte 22 Norte 0 962.7 2.4 85
2019-09-27 21:00:00 16.3 14 Norte 30 Norte 0 961.8 2.2 83
2019-09-27 20:00:00 17.6 24 Norte 33 Norte 0 960.8 1.6 83
2019-09-27 19:00:00 19.7 19 Norte 33 Norte 0 960.3 0.8 73
2019-09-27 18:00:00 22 26 Norte 39 Norte 0 959.6 -0.5 65
2019-09-27 17:00:00 25 8 Este 21 Nordeste 0 959.2 -1.5 39
2019-09-27 16:00:00 24.5 8 Noroeste 17 Norte 0 959.5 -1.7 41
2019-09-27 15:00:00 23.5 8 Nordeste 17 Norte 0 960.1 -1.6 48
2019-09-27 14:00:00 21.9 6 Noroeste 15 Norte 0 960.7 -1.3 56
2019-09-27 13:00:00 19 7 Norte 13 Norte 0 961.2 -0.3 71
2019-09-27 12:00:00 16.9 5 Oeste 13 Noroeste 0 961.7 0.6 80
2019-09-27 11:00:00 14.4 8 Oeste 11 Oeste 0 962 1.1 91
2019-09-27 10:00:00 13.6 3 Noroeste 9 Noroeste 0 961.5 0.8 93
2019-09-27 09:00:00 13.4 4 Sudeste 11 Noroeste 0 961.1 0.4 94
2019-09-27 08:00:00 13.1 8 Norte 13 Noroeste 0 960.9 0.1 97
2019-09-27 07:00:00 11.8 7 Noroeste 13 Noroeste 0 960.7 0.1 97
2019-09-27 06:00:00 13 3 Noroeste 13 Este 0 960.7 -0.2 94
2019-09-27 05:00:00 13.8 9 Norte 18 Norte 0 960.8 0.1 97
2019-09-27 04:00:00 14 7 Nordeste 11 Nordeste 0 960.6 0.1 96
2019-09-27 03:00:00 14 5 Nordeste 8 Norte 0 960.9 0.3 98
2019-09-27 02:00:00 13.4 4 Nordeste 8 Nordeste 0 960.7 0.2 97
2019-09-27 01:00:00 11.9 0 Calma 2 Sudoeste 0 960.5 0.1 97
2019-09-27 00:00:00 12.7 0 Calma 13 Norte 0 960.6 0.8 92
2019-09-26 23:00:00 14.7 10 Norte 18 Nordeste 0 960.5 1.2 94
2019-09-26 22:00:00 15.8 14 Norte 24 Norte 0 960.4 1.6 91
2019-09-26 21:00:00 16.6 6 Este 21 Nordeste 0 959.8 1.5 85
2019-09-26 20:00:00 19.4 15 Norte 26 Nordeste 0 959.3 0.9 76
2019-09-26 19:00:00 22.4 19 Nordeste 30 Nordeste 0 958.8 -0.2 64
2019-09-26 18:00:00 26.2 18 Norte 28 Norte 0 958.3 -1 45
2019-09-26 17:00:00 26.4 4 Norte 17 Norte 0 958.4 -1.5 42
2019-09-26 16:00:00 25.3 7 Norte 15 Norte 0 959 -1.1 46
2019-09-26 15:00:00 25.2 7 Sudoeste 15 Oeste 0 959.3 -1.4 48
2019-09-26 14:00:00 23.2 6 Sudoeste 15 Sudoeste -- 959.9 -1 52
2019-09-26 13:00:00 20.5 4 Oeste 13 Este 0 960.1 -0.7 65
2019-09-26 12:00:00 17.9 6 Este 13 Norte 0 960.7 0.1 78
2019-09-26 11:00:00 15.3 5 Norte 11 Norte 0 960.9 0.5 87
2019-09-26 10:00:00 12.6 3 Norte 5 Noroeste 0 960.8 0.7 98
2019-09-26 09:00:00 10 0 Calma 5 Noroeste 0 960.6 0.6 100
2019-09-26 08:00:00 8.4 0 Calma 8 Nordeste 0 960.4 0.4 100
2019-09-26 07:00:00 8.4 0 Calma 5 Nordeste 0 960.1 -0.2 100
2019-09-26 06:00:00 9 0 Calma 5 Norte 0 960 -0.6 100
2019-09-26 05:00:00 9.2 0 Calma 4 Nordeste 0 960 -0.5 100
2019-09-26 04:00:00 9.3 0 Calma 5 Nordeste 0 960.3 -0.1 99
2019-09-26 03:00:00 9.9 0 Calma 5 Nordeste 0 960.6 0.2 99
2019-09-26 02:00:00 10.9 4 Este 5 Este 0 960.5 0.3 97
2019-09-26 01:00:00 11.6 0 Calma 9 Nordeste 0 960.4 0.4 95
2019-09-26 00:00:00 12.9 5 Nordeste 8 Nordeste 0 960.4 0.7 91
2019-09-25 23:00:00 14.3 0 Calma 9 Norte 0 960.2 0.9 87
2019-09-25 22:00:00 14.9 6 Norte 17 Norte 0 960 1.1 84
2019-09-25 21:00:00 16.3 9 Nordeste 22 Nordeste 0 959.7 0.8 80
2019-09-25 20:00:00 17.4 15 Norte 24 Norte 0 959.3 0.4 76
2019-09-25 19:00:00 19.3 15 Nordeste 24 Nordeste 0 958.9 -0.1 68
2019-09-25 18:00:00 19.4 18 Nordeste 26 Nordeste 0 958.9 -0.3 66
2019-09-25 17:00:00 20.7 14 Nordeste 22 Nordeste 0 958.9 -0.8 61
2019-09-25 16:00:00 21.3 6 Norte 18 Norte 0 959 -1.2 53
2019-09-25 15:00:00 21.3 5 Sur 15 Sudeste 0 959.2 -1.3 53
2019-09-25 14:00:00 20.7 6 Sudoeste 17 Sudoeste 0 959.7 -0.7 55
2019-09-25 13:00:00 19.6 4 Norte 17 Noroeste 0 960.2 0.2 58
2019-09-25 12:00:00 18.9 12 Norte 26 Norte 0 960.5 0.7 59
2019-09-25 11:00:00 17.5 2 Este 9 Sudeste 0 960.4 1.2 73
2019-09-25 10:00:00 15 0 Calma 5 Sudoeste 0 960 0.9 85
2019-09-25 09:00:00 12.6 0 Calma 4 Oeste 0 959.8 1 97
2019-09-25 08:00:00 12.6 5 Oeste 5 Oeste 0 959.2 0.5 98
2019-09-25 07:00:00 13.5 0 Calma 9 Noroeste 0 959.1 0.2 95
2019-09-25 06:00:00 14.2 4 Oeste 13 Noroeste 0 958.8 -0.3 93
2019-09-25 05:00:00 14.4 5 Oeste 9 Oeste 0 958.7 -0.5 92
2019-09-25 04:00:00 14.5 2 Sudeste 9 Este 0 958.9 -0.4 90
2019-09-25 03:00:00 14.5 5 Este 8 Este 0 959.1 -0.3 92
2019-09-25 02:00:00 14.6 3 Nordeste 9 Este 0 959.2 -0.2 92
2019-09-25 01:00:00 14.8 4 Este 9 Nordeste 0 959.3 0.2 91
2019-09-25 00:00:00 14.8 5 Este 13 Este 0 959.4 0.9 90
2019-09-24 23:00:00 14.9 10 Nordeste 32 Nordeste 0 959.4 1.4 91
2019-09-24 22:00:00 15.7 18 Norte 28 Norte 0 959.1 1.7 88
2019-09-24 21:00:00 16.3 17 Nordeste 26 Norte 0 958.5 1.8 84
2019-09-24 20:00:00 16.8 14 Norte 33 Norte 0 958 1.1 79
2019-09-24 19:00:00 18 22 Norte 39 Norte 0 957.4 0 76
2019-09-24 18:00:00 20.4 28 Nordeste 37 Norte 0 956.7 -0.7 73
2019-09-24 17:00:00 22.8 14 Sudoeste 30 Sudoeste 0 956.9 -0.9 64
2019-09-24 16:00:00 21.6 23 Sudoeste 37 Oeste 0 957.4 -0.2 66
2019-09-24 15:00:00 21.6 26 Sudoeste 42 Sudoeste 0 957.4 -0.5 64
2019-09-24 14:00:00 21.2 20 Sudoeste 42 Sudoeste 0 957.8 -0.3 65
2019-09-24 13:00:00 22.1 38 Sudoeste 50 Sudoeste 0 957.6 0 62
2019-09-24 12:00:00 19.6 33 Sudoeste 46 Sudoeste 0 957.9 0.4 68
2019-09-24 11:00:00 18.3 22 Sudoeste 46 Sudoeste 0 958.1 0.8 71
2019-09-24 10:00:00 18.1 21 Sur 28 Sur 0 957.6 0.7 67
2019-09-24 09:00:00 17.7 12 Sur 22 Sudoeste 0 957.5 1 66
2019-09-24 08:00:00 17.5 7 Sur 24 Sur 0 957.3 0.2 68
2019-09-24 07:00:00 18.1 14 Sudoeste 32 Sudoeste 0 956.9 0.1 64
2019-09-24 06:00:00 18.3 11 Sudoeste 30 Sur 0 956.5 -1.1 61
2019-09-24 05:00:00 17.6 9 Este 30 Sudoeste 0 957.1 -0.9 62
2019-09-24 04:00:00 18.2 5 Norte 21 Sur 0 956.8 -1.6 59
2019-09-24 03:00:00 17.6 6 Sudoeste 17 Sudoeste 0 957.6 -1.6 63
2019-09-24 02:00:00 18 10 Sur 21 Sudoeste 0 958 -1.5 63
2019-09-24 01:00:00 19.1 14 Sudoeste 24 Sudoeste 0 958.4 -1 61
2019-09-24 00:00:00 19.4 12 Sudoeste 22 Sudoeste 0 959.2 -0.1 61
2019-09-23 23:00:00 18.4 8 Sudoeste 15 Sudoeste 0 959.5 0.2 69
2019-09-23 22:00:00 18.3 7 Sur 9 Sur 0 959.4 0.2 71
2019-09-23 21:00:00 19.1 5 Oeste 13 Oeste 0 959.3 0 64
2019-09-23 20:00:00 19.7 10 Sudoeste 15 Sudoeste 0 959.3 0.2 63
2019-09-23 19:00:00 20.9 8 Oeste 22 Oeste 0 959.2 -0.4 57
2019-09-23 18:00:00 21.1 15 Sudoeste 30 Sudoeste 0 959.3 -0.5 54
2019-09-23 17:00:00 21.1 20 Sudoeste 35 Sudoeste 0 959.1 -0.6 54
2019-09-23 16:00:00 21.2 18 Sudoeste 35 Sur 0 959.6 -0.7 54
2019-09-23 15:00:00 20.7 19 Sudoeste 33 Sudoeste 0 959.8 -0.9 57
2019-09-23 14:00:00 19.3 22 Sudoeste 39 Sudoeste 0 959.7 -1 61
2019-09-23 13:00:00 18.2 18 Sudoeste 28 Sudoeste 0 960.3 -0.4 65
2019-09-23 12:00:00 16.4 19 Sudoeste 30 Sudoeste 0 960.7 0.2 74
2019-09-23 11:00:00 15.8 19 Sudoeste 28 Sur 0 960.7 0.3 75
2019-09-23 10:00:00 13 4 Sudeste 8 Sudeste 0 960.7 0.7 94
2019-09-23 09:00:00 10.7 4 Nordeste 8 Nordeste 0 960.5 0.6 100
2019-09-23 08:00:00 9.1 5 Este 8 Este 0 960.4 0.7 100
2019-09-23 07:00:00 9.1 3 Norte 8 Norte 0 960 0.6 100
2019-09-23 06:00:00 8.9 6 Nordeste 9 Nordeste 0 959.9 0.3 100
2019-09-23 05:00:00 8.4 5 Nordeste 5 Nordeste 0 959.7 0.1 100
2019-09-23 04:00:00 8.3 0 Calma 8 Oeste 0 959.4 -0.1 100
2019-09-23 03:00:00 9.3 2 Oeste 8 Norte 0 959.6 0.1 100
2019-09-23 02:00:00 9.4 7 Norte 9 Nordeste 0 959.6 0.2 100
2019-09-23 01:00:00 10.3 0 Calma 8 Nordeste 0 959.5 0.8 99
2019-09-23 00:00:00 11.5 0 Calma 4 Sudeste 0 959.5 1.2 97
2019-09-22 23:00:00 12.3 3 Oeste 11 Noroeste 0 959.4 2 94
2019-09-22 22:00:00 13.3 7 Noroeste 11 Norte 0 958.7 2.1 93
2019-09-22 21:00:00 14.7 8 Norte 18 Norte 0 958.3 2.7 87
2019-09-22 20:00:00 16.2 15 Norte 32 Norte 0 957.4 2.1 81
2019-09-22 19:00:00 19.1 19 Norte 33 Norte 0 956.6 1 71
2019-09-22 18:00:00 22.1 10 Oeste 41 Sudoeste 0 955.6 0.2 41
2019-09-22 17:00:00 21.8 14 Sudoeste 28 Sudoeste 0 955.3 -0.2 45
2019-09-22 16:00:00 22 18 Sudoeste 35 Sudoeste 0 955.6 0.3 48
2019-09-22 15:00:00 21 26 Sudoeste 39 Sudoeste 0 955.4 0.1 57
2019-09-22 14:00:00 20.5 24 Sudoeste 45 Sudoeste 0 955.5 0.3 59
2019-09-22 13:00:00 19.1 29 Sudoeste 41 Sudoeste 0 955.3 0.9 66
2019-09-22 12:00:00 18 21 Sudoeste 33 Sudoeste 0 955.3 1.8 72
2019-09-22 11:00:00 16.3 14 Sudoeste 32 Sudoeste 0 955.2 2.7 79
2019-09-22 10:00:00 15.4 22 Sudoeste 33 Sudoeste 0 954.4 2.5 85
2019-09-22 09:00:00 14.4 24 Sudoeste 32 Sudoeste 0 953.5 2.2 91
2019-09-22 08:00:00 14.6 21 Sudoeste 30 Sudoeste 0 952.5 1.6 94
2019-09-22 07:00:00 15.6 12 Sur 26 Sudoeste 3 951.9 1.2 98
2019-09-22 06:00:00 16.9 10 Sudoeste 13 Oeste 3.1 951.3 0.4 98
2019-09-22 05:00:00 17.8 2 Noroeste 8 Oeste 0.2 950.9 0.2 92
2019-09-22 04:00:00 18.7 7 Sudeste 13 Sudoeste 0 950.7 0.1 82
2019-09-22 03:00:00 18.7 6 Sur 11 Sur 0 950.9 0.1 81
2019-09-22 02:00:00 19.4 7 Sur 15 Sudoeste 0 950.7 -0.1 74
2019-09-22 01:00:00 19.2 10 Sur 17 Sudoeste 0 950.6 -0.3 76
2019-09-22 00:00:00 19.4 11 Sudoeste 15 Sudoeste 0 950.8 0.1 75
2019-09-21 23:00:00 19.2 9 Sudoeste 15 Sudoeste 0 950.8 0 75
2019-09-21 22:00:00 19.8 8 Sudoeste 24 Sudoeste 0 950.9 0.3 72
2019-09-21 21:00:00 20.6 18 Sudoeste 30 Sudoeste 0 950.7 0.1 68
2019-09-21 20:00:00 21.4 17 Sudoeste 33 Sudoeste 0 950.8 -0.2 66
2019-09-21 19:00:00 22.3 21 Sudoeste 32 Sudoeste 0 950.6 -0.8 61
2019-09-21 18:00:00 23.7 20 Sur 35 Sudoeste 0 950.6 -1.2 58
2019-09-21 17:00:00 23.6 18 Sudoeste 37 Sudoeste 0 951 -1.2 60
2019-09-21 16:00:00 23.5 24 Sudoeste 39 Sudoeste 0 951.4 -1.2 57
2019-09-21 15:00:00 24.4 21 Sur 37 Sudoeste 0 951.8 -1.1 53
2019-09-21 14:00:00 24.3 20 Sur 42 Sudoeste 0 952.2 -0.8 53
2019-09-21 13:00:00 23.7 17 Sur 30 Sur 0 952.6 -0.6 63
2019-09-21 12:00:00 22.1 16 Sur 32 Sur 0 952.9 -0.4 68
2019-09-21 11:00:00 21.3 21 Sur 32 Sur 0 953 -0.5 72
2019-09-21 10:00:00 19.3 13 Sur 22 Sur 0 953.2 -0.2 82
2019-09-21 09:00:00 17.7 10 Sur 17 Sur 0 953.3 -0.3 88
2019-09-21 08:00:00 15.3 5 Noroeste 15 Nordeste 0 953.5 0 95
2019-09-21 07:00:00 15.1 5 Norte 15 Norte 0 953.4 -0.8 95
2019-09-21 06:00:00 16.2 3 Oeste 21 Nordeste 0 953.6 -0.6 90
2019-09-21 05:00:00 16.3 10 Este 17 Sudeste 0 953.5 -2.3 91
2019-09-21 04:00:00 15.9 10 Sur 13 Sudoeste 0 954.2 -0.6 94
2019-09-21 03:00:00 17.2 10 Sur 22 Sudoeste 0 954.2 -1.1 90
2019-09-21 02:00:00 17.5 21 Sudoeste 30 Sudoeste 0 955.8 -0.1 87
2019-09-21 01:00:00 16 6 Oeste 11 Oeste 0 954.8 -2.1 95
2019-09-21 00:00:00 16.7 8 Nordeste 21 Sudeste 0 955.3 0.4 96
2019-09-20 23:00:00 16.6 4 Norte 22 Sudoeste 0.5 955.9 1.7 95
2019-09-20 22:00:00 17.5 22 Sudoeste 61 Oeste 0.3 956.9 2.9 89
2019-09-20 21:00:00 22 16 Sur 35 Sur 0.9 954.9 0.9 75
2019-09-20 20:00:00 24.1 17 Sudeste 28 Sudeste 0 954.2 -0.1 60
2019-09-20 19:00:00 24.7 20 Sudeste 39 Sudeste 0 954 -1 56
2019-09-20 18:00:00 25.6 25 Sudeste 45 Sudeste 0 954 -1.5 56
2019-09-20 17:00:00 26.2 29 Sudeste 45 Sudeste 0 954.3 -2.1 55
2019-09-20 16:00:00 25.6 24 Sudeste 45 Sudeste 0 955 -2.1 57
2019-09-20 15:00:00 27.2 28 Sudeste 42 Sudeste 0 955.5 -2.1 52
2019-09-20 14:00:00 26.7 20 Sudeste 37 Sudeste 0 956.4 -1.8 55
2019-09-20 13:00:00 25.3 15 Este 26 Este 0 957.1 -1.1 59
2019-09-20 12:00:00 23.9 14 Este 24 Este 0 957.6 -0.2 64
2019-09-20 11:00:00 21.6 5 Este 11 Este 0 958.2 0.8 72
2019-09-20 10:00:00 16.9 0 Calma 4 Nordeste 0 958.2 1 99
2019-09-20 09:00:00 12.3 3 Noroeste 4 Nordeste 0 957.8 0.4 100
2019-09-20 08:00:00 11 0 Calma 9 Oeste 0 957.4 -0.3 100
2019-09-20 07:00:00 11.6 2 Oeste 8 Este 0 957.2 -0.9 100
2019-09-20 06:00:00 11.6 5 Nordeste 9 Nordeste 0 957.4 -1 100
2019-09-20 05:00:00 12.5 4 Sur 8 Sur 0 957.7 -0.7 100
2019-09-20 04:00:00 13.3 5 Oeste 11 Noroeste 0 958.1 -0.5 100
2019-09-20 03:00:00 13.4 5 Este 9 Nordeste 0 958.4 -0.7 99
2019-09-20 02:00:00 14 4 Norte 8 Nordeste 0 958.4 -1.1 99
2019-09-20 01:00:00 15.1 3 Nordeste 8 Este 0 958.6 -0.5 98
2019-09-20 00:00:00 16.2 3 Este 5 Sudeste 0 959.1 0.6 95
2019-09-19 23:00:00 17.2 4 Sur 9 Norte 0 959.5 1.4 92
2019-09-19 22:00:00 18.1 7 Norte 18 Norte 0 959.1 1.4 88
2019-09-19 21:00:00 19 13 Norte 18 Nordeste 0 958.5 0.9 84
2019-09-19 20:00:00 20.9 12 Norte 28 Norte 0 958.1 0.2 78
2019-09-19 19:00:00 23.2 21 Nordeste 26 Nordeste 0 957.7 -0.7 70
2019-09-19 18:00:00 24.9 19 Nordeste 28 Nordeste 0 957.6 -1.4 64
2019-09-19 17:00:00 25.8 11 Nordeste 22 Nordeste 0 957.9 -1.9 58
2019-09-19 16:00:00 25.2 7 Nordeste 17 Norte 0 958.4 -2 59
2019-09-19 15:00:00 24.1 5 Este 15 Nordeste 0 959 -1.8 61
2019-09-19 14:00:00 22.6 4 Sudoeste 15 Nordeste 0 959.8 -1.2 67
2019-09-19 13:00:00 20.5 4 Este 13 Nordeste 0 960.4 -0.4 72
2019-09-19 12:00:00 18.8 5 Norte 15 Norte 0 960.8 0.4 78
2019-09-19 11:00:00 16.7 3 Norte 9 Noroeste 0 961 0.8 87
2019-09-19 10:00:00 14.5 4 Oeste 8 Oeste 0 960.8 0.9 100
2019-09-19 09:00:00 13.1 4 Sudeste 8 Este 0 960.4 0.6 100
2019-09-19 08:00:00 12.1 2 Este 5 Oeste 0 960.2 0.3 100
2019-09-19 07:00:00 11 0 Calma 9 Nordeste 0 959.9 -0.3 100
2019-09-19 06:00:00 11.3 3 Nordeste 11 Nordeste 0 959.8 -0.8 100
2019-09-19 05:00:00 11.6 5 Nordeste 8 Norte 0 959.9 -0.8 100
2019-09-19 04:00:00 13.3 3 Nordeste 5 Nordeste 0 960.2 -0.6 100
2019-09-19 03:00:00 14.2 0 Calma 8 Nordeste 0 960.6 -0.2 100
2019-09-19 02:00:00 14.2 3 Este 8 Este 0 960.7 0.1 100
2019-09-19 01:00:00 13.3 4 Norte 9 Nordeste 0 960.8 0.5 100
2019-09-19 00:00:00 14.2 0 Calma 9 Norte 0 960.8 1 98
2019-09-18 23:00:00 15.8 6 Norte 13 Norte 0 960.6 1.2 99
2019-09-18 22:00:00 16.5 10 Norte 15 Norte 0 960.3 1.1 97
2019-09-18 21:00:00 17.6 8 Norte 21 Norte 0 959.8 1.2 90
2019-09-18 20:00:00 19 11 Norte 22 Nordeste 0 959.4 0.7 87
2019-09-18 19:00:00 20.2 14 Nordeste 30 Nordeste 0 959.2 0 84
2019-09-18 18:00:00 21.6 9 Noroeste 24 Noroeste 0 958.6 -1 77
2019-09-18 17:00:00 20.9 13 Noroeste 18 Noroeste 0 958.7 -0.9 82
2019-09-18 16:00:00 21 6 Norte 11 Norte 0 959.2 -0.1 80
2019-09-18 15:00:00 20.4 4 Nordeste 9 Norte 0 959.6 0.2 81
2019-09-18 14:00:00 20.1 4 Este 11 Este 0 959.6 -0.2 82
2019-09-18 13:00:00 20.4 6 Norte 11 Norte 0 959.3 0 86
2019-09-18 12:00:00 17.6 4 Sudoeste 9 Oeste 0 959.4 1.1 94
2019-09-18 11:00:00 16 3 Norte 9 Nordeste 1.5 959.8 2 100
2019-09-18 10:00:00 15.2 4 Este 9 Nordeste 0.1 959.3 1.7 99
2019-09-18 09:00:00 15 6 Nordeste 9 Noroeste 0 958.3 0.9 98
2019-09-18 08:00:00 14.7 5 Sur 13 Norte 0 957.8 0.2 98
2019-09-18 07:00:00 15.1 10 Norte 13 Norte 0 957.6 -0.8 96
2019-09-18 06:00:00 15 6 Nordeste 17 Nordeste 0 957.4 -1.7 95
2019-09-18 05:00:00 16.3 3 Norte 17 Sudoeste 0 957.6 -0.5 89
2019-09-18 04:00:00 17.6 17 Sudoeste 42 Sudoeste 0 958.4 0 85
2019-09-18 03:00:00 16.1 9 Sudoeste 13 Sudoeste 0 959.1 0.6 99
2019-09-18 02:00:00 15.8 3 Este 9 Este 0 958.1 -0.1 99
2019-09-18 01:00:00 16.3 6 Este 8 Este 0 958.4 0.5 97
2019-09-18 00:00:00 17.4 2 Noroeste 8 Norte 0 958.5 0.7 92
2019-09-17 23:00:00 17.7 8 Norte 11 Nordeste 0 958.2 1.3 92
2019-09-17 22:00:00 19.4 6 Sur 17 Noroeste 0 957.9 0.4 87
2019-09-17 21:00:00 21.3 9 Norte 21 Norte 0 957.8 0.5 82